createdAt,value
2019-05-09T00:01:24.834Z,7.20
2019-05-09T00:03:54.446Z,5.70
2019-05-09T00:06:24.127Z,6.73
2019-05-09T00:08:53.433Z,6.27
2019-05-09T00:11:24.609Z,5.63
2019-05-09T00:13:53.971Z,6.17
2019-05-09T00:16:23.628Z,6.17
2019-05-09T00:18:54.144Z,6.23
2019-05-09T00:21:29.204Z,5.40
2019-05-09T00:23:58.126Z,6.80
2019-05-09T00:26:27.300Z,6.70
2019-05-09T00:29:15.517Z,7.40
2019-05-09T00:31:54.316Z,6.20
2019-05-09T00:34:36.367Z,9.47
2019-05-09T00:37:05.310Z,10.40
2019-05-09T00:39:34.308Z,9.13
2019-05-09T00:42:04.422Z,7.93
2019-05-09T00:44:54.344Z,8.57
2019-05-09T00:47:29.592Z,10.57
2019-05-09T00:50:00.330Z,11.53
2019-05-09T00:52:29.363Z,11.17
2019-05-09T00:54:58.271Z,9.53
2019-05-09T00:57:36.119Z,8.37
2019-05-09T01:00:24.098Z,5.40
2019-05-09T01:02:54.221Z,4.23
2019-05-09T01:05:23.944Z,4.43
2019-05-09T01:07:53.767Z,4.00
2019-05-09T01:10:23.738Z,5.90
2019-05-09T01:12:54.203Z,5.10
2019-05-09T01:15:24.083Z,4.43
2019-05-09T01:17:53.813Z,4.97
2019-05-09T01:20:24.164Z,3.90
2019-05-09T01:22:54.176Z,4.73
2019-05-09T01:25:43.492Z,4.97
2019-05-09T01:28:13.947Z,3.80
2019-05-09T01:30:43.827Z,4.57
2019-05-09T01:33:25.802Z,5.00
2019-05-09T01:35:54.695Z,4.10
2019-05-09T01:38:23.785Z,3.23
2019-05-09T01:40:53.394Z,3.67
2019-05-09T01:43:40.796Z,3.57
2019-05-09T01:46:09.879Z,4.03
2019-05-09T01:48:38.748Z,5.87
2019-05-09T01:51:07.719Z,5.50
2019-05-09T01:53:40.163Z,5.50
2019-05-09T01:56:09.338Z,5.83
2019-05-09T01:58:38.257Z,5.93
2019-05-09T02:01:08.979Z,6.50
2019-05-09T02:03:38.029Z,6.13
2019-05-09T02:06:30.056Z,7.07
2019-05-09T02:08:46.925Z,7.70
2019-05-09T02:11:15.991Z,8.10
2019-05-09T02:13:44.954Z,10.63
2019-05-09T02:16:33.654Z,9.97
2019-05-09T02:19:09.079Z,8.40
2019-05-09T02:21:38.124Z,8.63
2019-05-09T02:24:07.237Z,8.37
2019-05-09T02:26:56.431Z,10.83
2019-05-09T02:29:25.345Z,9.97
2019-05-09T02:31:54.811Z,10.57
2019-05-09T02:34:24.909Z,10.93
2019-05-09T02:36:54.142Z,11.03
2019-05-09T02:39:23.222Z,10.10
2019-05-09T02:42:04.807Z,10.40
2019-05-09T02:44:23.353Z,10.50
2019-05-09T02:47:21.609Z,10.90
2019-05-09T02:49:50.750Z,11.27
2019-05-09T02:52:20.073Z,10.87
2019-05-09T02:54:50.116Z,10.90
2019-05-09T02:57:19.209Z,12.43
2019-05-09T03:00:08.712Z,12.60
2019-05-09T03:03:01.493Z,12.07
2019-05-09T03:05:38.539Z,11.17
2019-05-09T03:08:09.012Z,13.80
2019-05-09T03:10:38.133Z,11.70
2019-05-09T03:13:09.096Z,12.80
2019-05-09T03:15:39.395Z,11.00
2019-05-09T03:18:09.119Z,11.97
2019-05-09T03:20:58.589Z,11.93
2019-05-09T03:23:28.725Z,12.23
2019-05-09T03:25:58.827Z,13.77
2019-05-09T03:28:43.909Z,13.43
2019-05-09T03:31:14.020Z,14.00
2019-05-09T03:33:42.837Z,13.27
2019-05-09T03:36:11.691Z,15.60
2019-05-09T03:38:41.381Z,19.00
2019-05-09T03:41:10.314Z,14.43
2019-05-09T03:43:39.196Z,15.13
2019-05-09T03:46:17.999Z,17.00
2019-05-09T03:48:49.251Z,18.17
2019-05-09T03:51:18.444Z,14.73
2019-05-09T03:53:48.401Z,17.90
2019-05-09T03:56:20.413Z,14.73
2019-05-09T03:58:49.324Z,16.93
2019-05-09T04:01:18.162Z,17.10
2019-05-09T04:03:48.117Z,18.30
2019-05-09T04:06:18.447Z,18.87
2019-05-09T04:08:48.191Z,19.20
2019-05-09T04:11:18.479Z,20.00
2019-05-09T04:13:53.647Z,19.27
2019-05-09T04:16:22.458Z,19.17
2019-05-09T04:18:51.730Z,18.97
2019-05-09T04:21:20.551Z,19.17
2019-05-09T04:23:49.391Z,21.93
2019-05-09T04:26:32.283Z,21.83
2019-05-09T04:29:01.282Z,22.83
2019-05-09T04:31:30.175Z,19.63
2019-05-09T04:33:59.187Z,18.87
2019-05-09T04:36:40.106Z,20.23
2019-05-09T04:39:12.748Z,18.40
2019-05-09T04:41:41.676Z,20.97
2019-05-09T04:44:19.265Z,21.63
2019-05-09T04:46:44.741Z,19.50
2019-05-09T04:49:13.791Z,21.27
2019-05-09T04:51:42.682Z,21.97
2019-05-09T04:54:11.644Z,20.13
2019-05-09T04:56:41.720Z,20.87
2019-05-09T04:59:10.555Z,22.77
2019-05-09T05:01:47.747Z,21.50
2019-05-09T05:04:18.041Z,20.17
2019-05-09T05:06:47.794Z,21.23
2019-05-09T05:09:20.489Z,23.10
2019-05-09T05:11:49.046Z,22.43
2019-05-09T05:14:23.922Z,21.73
2019-05-09T05:16:55.281Z,24.47
2019-05-09T05:19:30.966Z,20.50
2019-05-09T05:21:59.682Z,22.60
2019-05-09T05:24:39.427Z,22.83
2019-05-09T05:27:08.541Z,24.63
2019-05-09T05:29:40.725Z,22.97
2019-05-09T05:32:13.889Z,23.90
2019-05-09T05:35:01.966Z,28.07
2019-05-09T05:37:30.971Z,26.20
2019-05-09T05:40:00.076Z,25.20
2019-05-09T05:42:28.974Z,25.60
2019-05-09T05:44:58.388Z,28.80
2019-05-09T05:47:48.478Z,26.00
2019-05-09T05:50:17.629Z,26.83
2019-05-09T05:52:47.597Z,25.47
2019-05-09T05:55:18.229Z,28.93
2019-05-09T05:57:47.937Z,31.77
2019-05-09T06:00:19.767Z,29.70
2019-05-09T06:02:48.690Z,33.87
2019-05-09T06:05:18.737Z,37.60
2019-05-09T06:07:48.308Z,34.80
2019-05-09T06:10:18.644Z,34.57
2019-05-09T06:12:48.277Z,38.43
2019-05-09T06:15:18.252Z,39.33
2019-05-09T06:17:48.436Z,35.73
2019-05-09T06:20:17.998Z,42.13
2019-05-09T06:22:47.821Z,39.27
2019-05-09T06:25:20.646Z,40.43
2019-05-09T06:27:48.407Z,38.57
2019-05-09T06:30:28.113Z,40.47
2019-05-09T06:32:58.094Z,39.37
2019-05-09T06:35:28.261Z,37.03
2019-05-09T06:37:58.752Z,41.37
2019-05-09T06:40:29.037Z,38.30
2019-05-09T06:42:59.333Z,33.30
2019-05-09T06:45:45.163Z,36.47
2019-05-09T06:48:17.860Z,35.00
2019-05-09T06:50:48.380Z,44.20
2019-05-09T06:53:18.232Z,41.30
2019-05-09T06:55:47.674Z,36.90
2019-05-09T06:58:32.010Z,39.00
2019-05-09T07:01:18.973Z,38.90
2019-05-09T07:03:49.632Z,41.33
2019-05-09T07:06:29.589Z,38.43
2019-05-09T07:09:20.783Z,42.23
2019-05-09T07:11:49.856Z,42.53
2019-05-09T07:14:32.698Z,44.10
2019-05-09T07:16:59.818Z,42.60
2019-05-09T07:19:29.072Z,44.63
2019-05-09T07:22:05.134Z,45.37
2019-05-09T07:24:58.081Z,45.80
2019-05-09T07:27:25.313Z,44.70
2019-05-09T07:29:58.109Z,44.37
2019-05-09T07:32:27.970Z,40.23
2019-05-09T07:35:00.842Z,38.50
2019-05-09T07:37:30.091Z,39.07
2019-05-09T07:39:59.269Z,39.37
2019-05-09T07:42:28.583Z,40.83
2019-05-09T07:44:59.134Z,42.23
2019-05-09T07:47:28.417Z,40.63
2019-05-09T07:49:58.548Z,42.63
2019-05-09T07:52:28.484Z,43.47
2019-05-09T07:54:58.103Z,46.07
2019-05-09T07:57:28.558Z,42.67
2019-05-09T07:59:58.567Z,45.93
2019-05-09T08:02:28.355Z,45.30
2019-05-09T08:04:58.269Z,45.87
2019-05-09T08:07:29.087Z,46.87
2019-05-09T08:09:58.385Z,44.80
2019-05-09T08:12:28.443Z,44.40
2019-05-09T08:15:10.375Z,45.07
2019-05-09T08:17:28.831Z,44.00
2019-05-09T08:19:58.446Z,47.30
2019-05-09T08:22:32.342Z,43.83
2019-05-09T08:24:58.725Z,45.17
2019-05-09T08:27:30.040Z,46.60
2019-05-09T08:29:58.876Z,44.53
2019-05-09T08:32:28.733Z,40.87
2019-05-09T08:34:59.009Z,39.17
2019-05-09T08:37:28.498Z,40.67
2019-05-09T08:39:57.976Z,39.00
2019-05-09T08:42:29.333Z,37.50
2019-05-09T08:44:59.273Z,38.30
2019-05-09T08:47:28.355Z,36.60
2019-05-09T08:50:13.908Z,41.10
2019-05-09T08:52:42.967Z,36.20
2019-05-09T08:55:11.893Z,36.40
2019-05-09T08:57:41.367Z,36.93
2019-05-09T09:00:11.007Z,34.70
2019-05-09T09:02:40.137Z,32.63
2019-05-09T09:05:10.322Z,36.30
2019-05-09T09:07:39.363Z,36.67
2019-05-09T09:10:08.992Z,33.37
2019-05-09T09:12:38.587Z,32.83
2019-05-09T09:15:13.352Z,33.40
2019-05-09T09:17:43.012Z,33.80
2019-05-09T09:20:12.461Z,40.03
2019-05-09T09:22:41.625Z,32.93
2019-05-09T09:25:10.893Z,32.07
2019-05-09T09:27:41.073Z,34.80
2019-05-09T09:30:20.291Z,36.17
2019-05-09T09:32:41.958Z,31.63
2019-05-09T09:35:12.129Z,29.27
2019-05-09T09:37:48.370Z,27.73
2019-05-09T09:40:13.248Z,36.60
2019-05-09T09:42:42.366Z,29.10
2019-05-09T09:45:11.830Z,27.00
2019-05-09T09:47:41.125Z,30.17
2019-05-09T09:50:11.297Z,25.77
2019-05-09T09:52:40.314Z,24.10
2019-05-09T09:55:10.539Z,25.23
2019-05-09T09:57:40.304Z,24.43
2019-05-09T10:00:38.235Z,25.47
2019-05-09T10:03:08.015Z,25.70
2019-05-09T10:08:23.965Z,25.00
2019-05-09T10:10:53.078Z,23.67
2019-05-09T10:13:22.222Z,25.43
2019-05-09T10:16:01.969Z,24.10
2019-05-09T10:18:48.647Z,24.10
2019-05-09T10:21:21.511Z,24.27
2019-05-09T10:23:50.532Z,23.47
2019-05-09T10:26:19.599Z,21.97
2019-05-09T10:28:48.784Z,19.87
2019-05-09T10:31:18.192Z,19.20
2019-05-09T10:33:48.252Z,20.00
2019-05-09T10:36:18.532Z,19.63
2019-05-09T10:38:47.957Z,19.33
2019-05-09T10:41:18.004Z,18.90
2019-05-09T10:43:54.022Z,13.97
2019-05-09T10:46:55.928Z,17.80
2019-05-09T10:49:16.676Z,13.17
2019-05-09T10:51:45.786Z,16.17
2019-05-09T10:54:14.978Z,13.63
2019-05-09T10:56:43.982Z,16.00
2019-05-09T10:59:13.707Z,13.50
2019-05-09T11:01:42.781Z,11.57
2019-05-09T11:04:11.882Z,12.17
2019-05-09T11:06:41.114Z,8.90
2019-05-09T11:09:11.105Z,9.90
2019-05-09T11:11:40.333Z,15.33
2019-05-09T11:14:09.438Z,10.07
2019-05-09T11:16:45.813Z,6.77
2019-05-09T11:19:10.129Z,4.47
2019-05-09T11:21:39.478Z,4.73
2019-05-09T11:24:09.190Z,6.93
2019-05-09T11:26:39.817Z,6.90
2019-05-09T11:29:09.235Z,6.10
2019-05-09T11:31:38.731Z,6.70
2019-05-09T11:34:08.944Z,7.40
2019-05-09T11:36:39.218Z,6.03
2019-05-09T11:39:10.660Z,6.57
2019-05-09T11:41:39.968Z,6.63
2019-05-09T11:44:08.977Z,6.23
2019-05-09T11:46:38.551Z,8.80
2019-05-09T11:49:08.471Z,7.27
2019-05-09T11:51:37.819Z,6.63
2019-05-09T11:54:09.148Z,5.57
2019-05-09T11:56:38.400Z,5.87
2019-05-09T11:59:08.063Z,4.43
2019-05-09T12:01:39.725Z,5.57
2019-05-09T12:04:08.704Z,6.33
2019-05-09T12:06:38.604Z,5.77
2019-05-09T12:09:08.909Z,6.33
2019-05-09T12:11:43.519Z,5.73
2019-05-09T12:14:09.788Z,8.23
2019-05-09T12:16:39.084Z,7.97
2019-05-09T12:19:07.949Z,7.97
2019-05-09T12:21:46.869Z,5.23
2019-05-09T12:24:09.215Z,6.07
2019-05-09T12:26:39.242Z,6.43
2019-05-09T12:29:08.786Z,4.27
2019-05-09T12:31:38.855Z,5.07
2019-05-09T12:34:09.128Z,6.40
2019-05-09T12:36:39.836Z,6.03
2019-05-09T12:39:09.747Z,4.23
2019-05-09T12:41:38.985Z,6.67
2019-05-09T12:44:09.019Z,6.37
2019-05-09T12:46:39.318Z,5.27
2019-05-09T12:49:09.133Z,3.30
2019-05-09T12:51:38.360Z,5.93
2019-05-09T12:54:08.734Z,3.33
2019-05-09T12:56:38.583Z,3.93
2019-05-09T12:59:09.189Z,3.03
2019-05-09T13:01:40.768Z,5.73
2019-05-09T13:04:30.253Z,5.67
2019-05-09T13:06:59.689Z,3.43
2019-05-09T13:09:28.821Z,2.60
2019-05-09T13:11:58.722Z,3.40
2019-05-09T13:14:28.603Z,4.47
2019-05-09T13:17:04.632Z,2.93
2019-05-09T13:19:38.285Z,4.03
2019-05-09T13:22:08.357Z,2.43
2019-05-09T13:24:37.982Z,2.83
2019-05-09T13:27:07.863Z,1.80
2019-05-09T13:29:38.130Z,2.50
2019-05-09T13:32:08.819Z,2.03
2019-05-09T13:34:39.894Z,2.60
2019-05-09T13:37:10.164Z,4.77
2019-05-09T13:39:41.161Z,4.47
2019-05-09T13:42:10.475Z,2.17
2019-05-09T13:44:41.576Z,1.80
2019-05-09T13:47:11.173Z,3.30
2019-05-09T13:49:41.133Z,3.13
2019-05-09T13:52:10.456Z,1.63
2019-05-09T13:54:39.489Z,5.10
2019-05-09T13:57:08.882Z,3.93
2019-05-09T13:59:38.023Z,2.87
2019-05-09T14:02:07.386Z,2.73
2019-05-09T14:04:39.878Z,3.17
2019-05-09T14:07:09.229Z,1.93
2019-05-09T14:09:39.232Z,4.70
2019-05-09T14:12:09.406Z,1.23
2019-05-09T14:14:43.524Z,2.60
2019-05-09T14:17:14.486Z,3.67
2019-05-09T14:19:46.869Z,2.50
2019-05-09T14:22:14.795Z,3.80
2019-05-09T14:24:43.846Z,2.77
2019-05-09T14:27:12.960Z,1.60
2019-05-09T14:29:42.075Z,2.17
2019-05-09T14:32:11.204Z,1.97
2019-05-09T14:34:42.757Z,2.47
2019-05-09T14:37:12.143Z,1.50
2019-05-09T14:39:54.985Z,3.83
2019-05-09T14:42:14.455Z,3.43
2019-05-09T14:44:44.007Z,3.10
2019-05-09T14:47:13.323Z,1.43
2019-05-09T14:49:44.685Z,1.70
2019-05-09T14:52:14.128Z,1.63
2019-05-09T14:54:43.628Z,1.37
2019-05-09T14:57:13.306Z,1.47
2019-05-09T14:59:43.165Z,2.63
2019-05-09T15:02:13.867Z,4.03
2019-05-09T15:04:43.059Z,1.33
2019-05-09T15:07:12.461Z,4.57
2019-05-09T15:09:41.916Z,3.13
2019-05-09T15:12:11.081Z,2.77
2019-05-09T15:14:40.731Z,1.83
2019-05-09T15:17:10.100Z,3.37
2019-05-09T15:19:39.537Z,4.20
2019-05-09T15:22:09.449Z,3.77
2019-05-09T15:24:38.981Z,2.10
2019-05-09T15:27:08.439Z,2.53
2019-05-09T15:29:39.106Z,2.67
2019-05-09T15:32:12.251Z,1.63
2019-05-09T15:34:40.314Z,1.53
2019-05-09T15:37:09.494Z,2.50
2019-05-09T15:39:38.836Z,2.87
2019-05-09T15:47:44.744Z,1.50
2019-05-09T15:50:20.075Z,3.05
2019-05-09T15:56:13.258Z,1.85
2019-05-09T15:58:42.087Z,2.20
2019-05-09T16:01:11.030Z,2.80
2019-05-09T16:03:40.557Z,3.03
2019-05-09T16:06:09.443Z,2.47
2019-05-09T16:08:38.312Z,3.70
2019-05-09T16:11:28.571Z,2.03
2019-05-09T16:13:57.610Z,3.17
2019-05-09T16:16:30.920Z,3.03
2019-05-09T16:22:49.333Z,1.87
2019-05-09T16:25:18.954Z,3.13
2019-05-09T16:27:48.488Z,4.20
2019-05-09T16:33:14.562Z,4.47
2019-05-09T16:35:43.557Z,4.20
2019-05-09T16:39:24.097Z,3.53
2019-05-09T16:42:05.302Z,2.90
2019-05-09T16:45:19.136Z,3.10
2019-05-09T16:51:37.918Z,5.47
2019-05-09T16:57:46.241Z,4.27
2019-05-09T17:00:30.394Z,1.97
2019-05-09T17:02:59.364Z,1.93
2019-05-09T17:05:28.579Z,3.00
2019-05-09T17:15:08.475Z,3.30
2019-05-09T17:30:42.187Z,3.93
2019-05-09T17:33:42.322Z,1.97
2019-05-09T17:36:06.851Z,2.37
2019-05-09T17:38:38.209Z,2.53
2019-05-09T17:41:28.415Z,3.67
2019-05-09T17:44:31.435Z,2.23
2019-05-09T17:47:48.789Z,2.73
2019-05-09T17:54:03.613Z,3.57
2019-05-09T17:56:32.626Z,3.00
2019-05-09T17:59:02.008Z,3.03
2019-05-09T18:01:31.342Z,5.13
2019-05-09T18:04:00.395Z,2.60
2019-05-09T18:06:29.518Z,3.07
2019-05-09T18:08:58.650Z,3.07
2019-05-09T18:11:27.525Z,2.50
2019-05-09T18:13:56.565Z,2.43
2019-05-09T18:16:28.516Z,2.00
2019-05-09T18:18:58.834Z,2.77
2019-05-09T18:21:46.526Z,1.50
2019-05-09T18:24:04.639Z,2.87
2019-05-09T18:26:33.717Z,3.33
2019-05-09T18:29:02.845Z,3.10
2019-05-09T18:31:54.995Z,3.20
2019-05-09T18:34:24.325Z,2.13
2019-05-09T18:36:53.408Z,1.73
2019-05-09T18:39:22.666Z,4.10
2019-05-09T18:41:51.569Z,3.27
2019-05-09T18:44:20.650Z,2.73
2019-05-09T18:46:49.687Z,2.83
2019-05-09T18:49:18.581Z,2.00
2019-05-09T18:52:02.426Z,2.20
2019-05-09T18:54:18.221Z,3.77
2019-05-09T18:56:57.388Z,5.17
2019-05-09T18:59:26.386Z,2.20
2019-05-09T19:01:55.708Z,2.60
2019-05-09T19:04:24.808Z,2.37
2019-05-09T19:06:54.243Z,3.10
2019-05-09T19:09:23.225Z,2.40
2019-05-09T19:11:52.129Z,2.73
2019-05-09T19:14:23.217Z,3.83
2019-05-09T19:17:10.386Z,2.83
2019-05-09T19:20:02.595Z,2.70
2019-05-09T19:22:31.728Z,2.80
2019-05-09T19:25:00.734Z,3.77
2019-05-09T19:27:29.755Z,2.30
2019-05-09T19:29:58.602Z,3.30
2019-05-09T19:32:27.755Z,3.53
2019-05-09T19:34:57.157Z,5.10
2019-05-09T19:37:26.440Z,5.40
2019-05-09T19:39:55.670Z,3.20
2019-05-09T19:42:24.614Z,3.50
2019-05-09T19:44:53.611Z,3.97
2019-05-09T19:47:22.427Z,4.07
2019-05-09T19:49:51.340Z,2.50
2019-05-09T19:52:20.255Z,4.10
2019-05-09T19:54:49.118Z,2.63
2019-05-09T19:57:17.988Z,3.97
2019-05-09T19:59:46.831Z,3.70
2019-05-09T20:02:15.821Z,4.13
2019-05-09T20:04:44.808Z,2.20
2019-05-09T20:07:14.172Z,2.43
2019-05-09T20:09:51.443Z,3.30
2019-05-09T20:12:45.338Z,4.90
2019-05-09T20:15:16.594Z,3.13
2019-05-09T20:17:45.490Z,3.00
2019-05-09T20:20:14.755Z,4.20
2019-05-09T20:22:52.396Z,2.70
2019-05-09T20:25:14.800Z,2.30
2019-05-09T20:27:43.799Z,5.23
2019-05-09T20:30:12.900Z,2.87
2019-05-09T20:32:41.934Z,4.00
2019-05-09T20:35:12.069Z,3.93
2019-05-09T20:37:41.117Z,4.27
2019-05-09T20:40:10.381Z,4.63
2019-05-09T20:42:39.720Z,6.37
2019-05-09T20:45:10.099Z,3.43
2019-05-09T20:47:41.117Z,3.93
2019-05-09T20:50:11.541Z,4.00
2019-05-09T20:52:40.783Z,2.70
2019-05-09T20:55:09.990Z,3.97
2019-05-09T20:57:39.186Z,4.43
2019-05-09T21:00:32.217Z,3.07
2019-05-09T21:02:48.870Z,4.13
2019-05-09T21:05:21.090Z,5.70
2019-05-09T21:07:50.162Z,3.60
2019-05-09T21:10:19.340Z,5.20
2019-05-09T21:12:48.568Z,6.83
2019-05-09T21:15:17.723Z,4.17
2019-05-09T21:17:46.925Z,5.43
2019-05-09T21:20:16.101Z,4.67
2019-05-09T21:22:45.188Z,4.87
2019-05-09T21:25:14.504Z,5.67
2019-05-09T21:27:43.584Z,5.00
2019-05-09T21:30:13.156Z,5.20
2019-05-09T21:32:42.227Z,5.40
2019-05-09T21:35:14.583Z,5.03
2019-05-09T21:37:43.511Z,6.20
2019-05-09T21:40:12.926Z,3.80
2019-05-09T21:42:41.821Z,5.10
2019-05-09T21:45:10.853Z,4.90
2019-05-09T21:47:39.758Z,5.00
2019-05-09T21:50:09.062Z,5.17
2019-05-09T21:52:37.921Z,5.83
2019-05-09T21:55:06.920Z,3.90
2019-05-09T21:57:36.062Z,4.23
2019-05-09T22:00:08.384Z,5.60
2019-05-09T22:02:37.408Z,3.57
2019-05-09T22:05:06.557Z,4.23
2019-05-09T22:07:35.553Z,4.63
2019-05-09T22:10:04.891Z,4.40
2019-05-09T22:12:33.768Z,4.77
2019-05-09T22:15:04.034Z,4.47
2019-05-09T22:17:37.965Z,4.43
2019-05-09T22:20:08.524Z,4.50
2019-05-09T22:22:37.503Z,4.07
2019-05-09T22:25:07.905Z,4.43
2019-05-09T22:27:37.205Z,5.00
2019-05-09T22:30:07.103Z,4.27
2019-05-09T22:32:36.121Z,4.93
2019-05-09T22:35:05.270Z,7.43
2019-05-09T22:37:34.228Z,3.90
2019-05-09T22:40:03.172Z,6.17
2019-05-09T22:42:32.092Z,5.47
2019-05-09T22:45:00.912Z,5.07
2019-05-09T22:47:29.803Z,5.53
2019-05-09T22:49:58.966Z,5.40
2019-05-09T22:52:27.942Z,5.60
2019-05-09T22:54:56.797Z,4.13
2019-05-09T22:57:25.710Z,5.70
2019-05-09T22:59:54.635Z,6.00
2019-05-09T23:02:23.621Z,5.03
2019-05-09T23:04:52.486Z,3.90
2019-05-09T23:07:21.457Z,4.53
2019-05-09T23:09:50.675Z,4.03
2019-05-09T23:12:19.571Z,5.00
2019-05-09T23:14:48.552Z,6.10
2019-05-09T23:17:17.352Z,4.53
2019-05-09T23:19:46.337Z,4.53
2019-05-09T23:22:15.516Z,4.87
2019-05-09T23:24:44.928Z,4.57
2019-05-09T23:27:16.327Z,5.07
2019-05-09T23:29:45.270Z,4.37
2019-05-09T23:32:33.682Z,5.57
2019-05-09T23:35:02.650Z,5.83
2019-05-09T23:37:31.642Z,5.67
2019-05-09T23:40:00.487Z,6.00
2019-05-09T23:42:29.552Z,5.07
2019-05-09T23:44:58.813Z,4.57
2019-05-09T23:47:27.690Z,4.30
2019-05-09T23:49:56.908Z,4.77
2019-05-09T23:52:26.342Z,4.60
2019-05-09T23:55:12.676Z,6.70
2019-05-09T23:57:59.020Z,5.30
